createdAt,value
2023-11-28T00:01:23.624Z,99960.25
2023-11-28T00:03:50.207Z,99967.38
2023-11-28T00:06:18.792Z,99971.84
2023-11-28T00:08:46.347Z,99974.50
2023-11-28T00:11:23.905Z,99974.50
2023-11-28T00:13:51.588Z,99978.00
2023-11-28T00:16:18.735Z,99986.16
2023-11-28T00:18:45.504Z,99986.94
2023-11-28T00:21:13.356Z,100001.06
2023-11-28T00:23:39.865Z,100002.09
2023-11-28T00:26:06.566Z,100008.19
2023-11-28T00:28:33.408Z,100009.22
2023-11-28T00:30:59.957Z,100020.66
2023-11-28T00:33:26.457Z,100011.88
2023-11-28T00:35:53.121Z,100024.31
2023-11-28T00:38:19.684Z,100036.59
2023-11-28T00:40:46.276Z,100028.63
2023-11-28T00:43:12.851Z,100043.72
2023-11-28T00:45:41.264Z,100041.91
2023-11-28T00:48:07.857Z,100042.06
2023-11-28T00:50:34.407Z,100040.25
2023-11-28T00:53:00.955Z,100042.88
2023-11-28T00:55:32.625Z,100044.72
2023-11-28T00:57:59.240Z,100062.31
2023-11-28T01:00:26.594Z,100061.47
2023-11-28T01:02:53.403Z,100065.94
2023-11-28T01:05:20.587Z,100069.44
2023-11-28T01:07:47.607Z,100075.72
2023-11-28T01:10:14.420Z,100091.66
2023-11-28T01:12:40.894Z,100091.66
2023-11-28T01:15:09.250Z,100091.66
2023-11-28T01:17:35.819Z,100099.63
2023-11-28T01:20:02.875Z,100096.13
2023-11-28T01:22:29.901Z,100111.91
2023-11-28T01:24:56.530Z,100117.53
2023-11-28T01:27:23.033Z,100118.38
2023-11-28T01:29:58.833Z,100126.34
2023-11-28T01:32:25.320Z,100133.28
2023-11-28T01:34:51.882Z,100136.13
2023-11-28T01:37:20.463Z,100133.47
2023-11-28T01:39:47.042Z,100142.25
2023-11-28T01:42:14.287Z,100148.41
2023-11-28T01:44:40.768Z,100167.13
2023-11-28T01:47:08.149Z,100167.97
2023-11-28T01:49:36.642Z,100163.66
2023-11-28T01:52:04.300Z,100179.56
2023-11-28T01:54:31.967Z,100186.72
2023-11-28T01:56:59.147Z,100184.88
2023-11-28T01:59:25.780Z,100184.88
2023-11-28T02:01:52.626Z,100190.19
2023-11-28T02:04:19.309Z,100200.81
2023-11-28T02:06:46.706Z,100194.66
2023-11-28T02:09:13.306Z,100206.28
2023-11-28T02:11:39.823Z,100217.72
2023-11-28T02:14:06.375Z,100216.91
2023-11-28T02:16:33.093Z,100222.22
2023-11-28T02:18:59.700Z,100235.47
2023-11-28T02:21:26.244Z,100238.13
2023-11-28T02:23:53.082Z,100246.09
2023-11-28T02:26:23.840Z,100252.22
2023-11-28T02:28:50.780Z,100254.06
2023-11-28T02:31:17.652Z,100255.03
2023-11-28T02:33:44.329Z,100270.97
2023-11-28T02:36:11.283Z,100268.31
2023-11-28T02:38:38.050Z,100266.50
2023-11-28T02:41:04.661Z,100272.78
2023-11-28T02:43:31.881Z,100270.13
2023-11-28T02:45:58.746Z,100278.09
2023-11-28T02:48:25.721Z,100281.75
2023-11-28T02:50:52.497Z,100285.22
2023-11-28T02:53:20.727Z,100281.75
2023-11-28T02:55:47.257Z,100280.91
2023-11-28T02:58:13.758Z,100291.53
2023-11-28T03:00:40.277Z,100288.88
2023-11-28T03:03:06.914Z,100296.84
2023-11-28T03:05:36.573Z,100302.97
2023-11-28T03:08:03.365Z,100310.09
2023-11-28T03:10:30.047Z,100310.09
2023-11-28T03:12:57.701Z,100326.03
2023-11-28T03:15:24.400Z,100328.69
2023-11-28T03:17:50.892Z,100328.69
2023-11-28T03:20:17.522Z,100322.53
2023-11-28T03:22:44.118Z,100337.63
2023-11-28T03:25:15.017Z,100345.59
2023-11-28T03:27:41.560Z,100354.41
2023-11-28T03:30:08.666Z,100356.22
2023-11-28T03:32:35.305Z,100360.69
2023-11-28T03:35:01.946Z,100357.06
2023-11-28T03:37:30.952Z,100360.69
2023-11-28T03:39:57.467Z,100356.38
2023-11-28T03:42:23.902Z,100363.34
2023-11-28T03:44:50.664Z,100367.00
2023-11-28T03:47:18.045Z,100372.31
2023-11-28T03:49:44.633Z,100382.91
2023-11-28T03:52:11.129Z,100385.56
2023-11-28T03:54:37.612Z,100387.41
2023-11-28T03:57:04.288Z,100387.41
2023-11-28T03:59:30.737Z,100385.72
2023-11-28T04:01:57.344Z,100389.22
2023-11-28T04:04:23.872Z,100388.38
2023-11-28T04:06:50.395Z,100394.53
2023-11-28T04:09:16.906Z,100394.53
2023-11-28T04:11:43.433Z,100392.84
2023-11-28T04:14:10.006Z,100398.16
2023-11-28T04:16:36.639Z,100405.13
2023-11-28T04:19:03.278Z,100408.78
2023-11-28T04:21:29.726Z,100410.59
2023-11-28T04:23:58.209Z,100414.25
2023-11-28T04:26:24.706Z,100415.06
2023-11-28T04:28:51.202Z,100427.50
2023-11-28T04:31:19.624Z,100441.63
2023-11-28T04:33:46.751Z,100437.13
2023-11-28T04:36:17.711Z,100440.78
2023-11-28T04:38:45.203Z,100437.34
2023-11-28T04:41:13.330Z,100446.09
2023-11-28T04:43:40.207Z,100444.47
2023-11-28T04:46:07.239Z,100449.75
2023-11-28T04:48:36.598Z,100457.72
2023-11-28T04:51:03.298Z,100467.50
2023-11-28T04:53:32.331Z,100470.16
2023-11-28T04:55:58.904Z,100474.63
2023-11-28T04:58:25.393Z,100469.34
2023-11-28T05:00:52.034Z,100471.97
2023-11-28T05:03:18.773Z,100474.63
2023-11-28T05:05:45.520Z,100473.81
2023-11-28T05:08:13.053Z,100475.63
2023-11-28T05:10:39.698Z,100478.28
2023-11-28T05:13:06.354Z,100490.72
2023-11-28T05:15:33.147Z,100500.34
2023-11-28T05:17:59.881Z,100504.00
2023-11-28T05:20:26.490Z,100501.34
2023-11-28T05:22:53.047Z,100506.63
2023-11-28T05:25:19.942Z,100510.97
2023-11-28T05:27:47.318Z,100512.94
2023-11-28T05:30:14.269Z,100509.44
2023-11-28T05:32:40.890Z,100517.41
2023-11-28T05:35:07.710Z,100518.25
2023-11-28T05:37:34.297Z,100514.75
2023-11-28T05:40:00.774Z,100518.41
2023-11-28T05:42:27.652Z,100527.19
2023-11-28T05:44:54.277Z,100529.84
2023-11-28T05:47:20.923Z,100535.31
2023-11-28T05:49:47.568Z,100543.13
2023-11-28T05:52:14.138Z,100544.09
2023-11-28T05:54:40.683Z,100549.41
2023-11-28T05:57:07.241Z,100545.09
2023-11-28T05:59:33.693Z,100555.53
2023-11-28T06:02:05.407Z,100554.72
2023-11-28T06:04:32.634Z,100556.53
2023-11-28T06:06:59.396Z,100562.81
2023-11-28T06:09:26.694Z,100566.31
2023-11-28T06:11:55.038Z,100576.09
2023-11-28T06:14:27.766Z,100576.94
2023-11-28T06:19:35.522Z,100589.38
2023-11-28T06:22:02.063Z,100607.09
2023-11-28T06:24:28.526Z,100608.91
2023-11-28T06:26:55.244Z,100612.41
2023-11-28T06:29:23.317Z,100624.84
2023-11-28T06:31:50.125Z,100626.66
2023-11-28T06:34:17.038Z,100631.97
2023-11-28T06:36:43.552Z,100638.13
2023-11-28T06:39:10.043Z,100639.09
2023-11-28T06:41:36.515Z,100646.06
2023-11-28T06:44:04.422Z,100639.09
2023-11-28T06:46:32.166Z,100646.22
2023-11-28T06:48:58.834Z,100642.72
2023-11-28T06:51:25.404Z,100655.84
2023-11-28T06:53:51.891Z,100661.31
2023-11-28T06:56:18.452Z,100666.63
2023-11-28T06:58:44.937Z,100663.13
2023-11-28T07:01:11.935Z,100667.59
2023-11-28T07:03:44.541Z,100673.75
2023-11-28T07:06:11.668Z,100675.56
2023-11-28T07:08:38.272Z,100679.06
2023-11-28T07:11:06.897Z,100685.03
2023-11-28T07:13:38.971Z,100682.25
2023-11-28T07:16:06.012Z,100698.00
2023-11-28T07:18:35.941Z,100698.84
2023-11-28T07:21:03.907Z,100695.19
2023-11-28T07:23:30.932Z,100695.88
2023-11-28T07:25:59.480Z,100703.00
2023-11-28T07:28:26.238Z,100703.84
2023-11-28T07:30:52.992Z,100714.31
2023-11-28T07:33:19.928Z,100715.97
2023-11-28T07:35:49.670Z,100717.63
2023-11-28T07:38:17.543Z,100714.66
2023-11-28T07:40:44.958Z,100721.63
2023-11-28T07:43:12.726Z,100716.19
2023-11-28T07:45:39.357Z,100726.78
2023-11-28T07:48:06.284Z,100727.47
2023-11-28T07:50:33.047Z,100731.81
2023-11-28T07:52:59.695Z,100737.94
2023-11-28T07:55:26.179Z,100731.66
2023-11-28T07:57:52.705Z,100737.66
2023-11-28T08:00:21.566Z,100740.16
2023-11-28T08:02:48.501Z,100750.63
2023-11-28T08:05:18.297Z,100749.59
2023-11-28T08:07:46.514Z,100749.44
2023-11-28T08:10:14.569Z,100751.25
2023-11-28T08:12:41.019Z,100749.28
2023-11-28T08:15:08.480Z,100749.28
2023-11-28T08:17:35.511Z,100741.19
2023-11-28T08:20:02.635Z,100750.13
2023-11-28T08:22:29.199Z,100750.97
2023-11-28T08:24:56.963Z,100749.97
2023-11-28T08:27:23.469Z,100743.69
2023-11-28T08:29:49.990Z,100737.53
2023-11-28T08:32:17.306Z,100751.50
2023-11-28T08:34:43.855Z,100753.16
2023-11-28T08:37:10.644Z,100755.66
2023-11-28T08:39:37.123Z,100754.00
2023-11-28T08:42:03.864Z,100752.19
2023-11-28T08:44:31.951Z,100767.97
2023-11-28T08:46:58.824Z,100775.78
2023-11-28T08:49:25.705Z,100776.75
2023-11-28T08:51:52.409Z,100781.91
2023-11-28T08:54:19.023Z,100788.06
2023-11-28T08:56:45.518Z,100795.03
2023-11-28T08:59:14.076Z,100791.56
2023-11-28T09:01:41.194Z,100793.22
2023-11-28T09:04:07.758Z,100798.53
2023-11-28T09:06:34.303Z,100798.53
2023-11-28T09:09:00.915Z,100799.34
2023-11-28T09:11:27.532Z,100800.34
2023-11-28T09:13:54.036Z,100805.66
2023-11-28T09:16:22.260Z,100804.84
2023-11-28T09:18:53.138Z,100809.31
2023-11-28T09:21:22.805Z,100803.16
2023-11-28T09:23:49.438Z,100804.84
2023-11-28T09:26:16.108Z,100807.63
2023-11-28T09:28:42.568Z,100815.44
2023-11-28T09:31:09.105Z,100819.94
2023-11-28T09:33:36.448Z,100821.75
2023-11-28T09:36:03.071Z,100818.09
2023-11-28T09:38:32.938Z,100821.41
2023-11-28T09:40:59.681Z,100820.44
2023-11-28T09:43:26.730Z,100831.88
2023-11-28T09:46:02.737Z,100829.09
2023-11-28T09:48:31.127Z,100825.59
2023-11-28T09:51:01.050Z,100829.09
2023-11-28T09:53:30.320Z,100837.03
2023-11-28T09:56:00.481Z,100839.69
2023-11-28T09:58:28.688Z,100835.22
2023-11-28T10:01:00.110Z,100839.56
2023-11-28T10:03:27.366Z,100835.06
2023-11-28T10:05:56.350Z,100853.66
2023-11-28T10:08:27.898Z,100851.00
2023-11-28T10:10:57.786Z,100839.41
2023-11-28T10:13:25.843Z,100845.56
2023-11-28T10:15:55.512Z,100834.94
2023-11-28T10:18:22.319Z,100842.06
2023-11-28T10:20:49.303Z,100835.06
2023-11-28T10:23:18.975Z,100840.25
2023-11-28T10:25:45.639Z,100829.63
2023-11-28T10:28:18.642Z,100830.44
2023-11-28T10:30:51.505Z,100833.94
2023-11-28T10:33:19.827Z,100833.78
2023-11-28T10:35:46.704Z,100843.44
2023-11-28T10:38:18.021Z,100841.59
2023-11-28T10:40:51.495Z,100844.25
2023-11-28T10:43:18.450Z,100845.94
2023-11-28T10:45:46.313Z,100848.44
2023-11-28T10:48:14.171Z,100857.09
2023-11-28T10:50:44.505Z,100845.44
2023-11-28T10:53:15.122Z,100853.41
2023-11-28T10:55:54.671Z,100853.25
2023-11-28T10:58:22.700Z,100860.41
2023-11-28T11:00:56.319Z,100851.44
2023-11-28T11:03:26.973Z,100846.13
2023-11-28T11:05:55.806Z,100853.13
2023-11-28T11:08:30.645Z,100859.25
2023-11-28T11:10:57.696Z,100860.94
2023-11-28T11:13:41.155Z,100862.44
2023-11-28T11:16:16.705Z,100855.47
2023-11-28T11:18:47.835Z,100863.28
2023-11-28T11:21:24.294Z,100864.97
2023-11-28T11:23:57.731Z,100866.78
2023-11-28T11:26:36.388Z,100871.09
2023-11-28T11:29:04.926Z,100867.47
2023-11-28T11:31:31.501Z,100856.84
2023-11-28T11:33:58.041Z,100864.66
2023-11-28T11:36:25.970Z,100865.50
2023-11-28T11:38:53.357Z,100860.31
2023-11-28T11:41:20.151Z,100858.50
2023-11-28T11:43:46.904Z,100862.16
2023-11-28T11:46:18.324Z,100863.81
2023-11-28T11:48:45.320Z,100858.66
2023-11-28T11:51:12.031Z,100852.50
2023-11-28T11:53:43.674Z,100864.81
2023-11-28T11:56:11.035Z,100861.31
2023-11-28T11:58:38.066Z,100864.81
2023-11-28T12:01:05.439Z,100863.00
2023-11-28T12:03:32.124Z,100862.16
2023-11-28T12:05:59.466Z,100869.13
2023-11-28T12:08:27.789Z,100863.81
2023-11-28T12:11:10.248Z,100862.16
2023-11-28T12:13:38.059Z,100867.47
2023-11-28T12:16:05.259Z,100869.28
2023-11-28T12:18:32.424Z,100859.50
2023-11-28T12:21:01.542Z,100863.00
2023-11-28T12:23:29.315Z,100859.50
2023-11-28T12:25:57.533Z,100859.50
2023-11-28T12:28:24.167Z,100859.50
2023-11-28T12:30:51.253Z,100860.31
2023-11-28T12:33:17.891Z,100861.16
2023-11-28T12:35:48.580Z,100858.50
2023-11-28T12:38:15.154Z,100857.69
2023-11-28T12:40:46.987Z,100866.47
2023-11-28T12:43:23.052Z,100869.97
2023-11-28T12:45:52.964Z,100875.13
2023-11-28T12:48:20.315Z,100872.47
2023-11-28T12:50:51.446Z,100874.44
2023-11-28T12:53:21.230Z,100868.31
2023-11-28T12:55:48.630Z,100871.78
2023-11-28T12:58:19.243Z,100870.81
2023-11-28T13:00:48.533Z,100874.31
2023-11-28T13:03:15.107Z,100878.63
2023-11-28T13:05:41.930Z,100875.97
2023-11-28T13:08:08.537Z,100874.16
2023-11-28T13:10:36.272Z,100872.47
2023-11-28T13:13:12.133Z,100878.63
2023-11-28T13:15:43.996Z,100874.16
2023-11-28T13:18:11.121Z,100873.31
2023-11-28T13:20:37.788Z,100875.84
2023-11-28T13:23:04.334Z,100874.84
2023-11-28T13:25:30.852Z,100885.47
2023-11-28T13:27:58.574Z,100875.66
2023-11-28T13:30:26.974Z,100876.50
2023-11-28T13:32:56.401Z,100871.19
2023-11-28T13:35:23.184Z,100875.50
2023-11-28T13:37:51.344Z,100873.69
2023-11-28T13:40:17.852Z,100863.91
2023-11-28T13:42:46.039Z,100867.41
2023-11-28T13:45:13.913Z,100869.22
2023-11-28T13:47:40.564Z,100864.59
2023-11-28T13:50:10.561Z,100865.41
2023-11-28T13:52:38.071Z,100860.94
2023-11-28T13:55:05.628Z,100852.97
2023-11-28T13:57:32.092Z,100852.97
2023-11-28T13:59:58.625Z,100841.50
2023-11-28T14:02:35.223Z,100848.66
2023-11-28T14:05:10.038Z,100850.47
2023-11-28T14:07:39.145Z,100862.63
2023-11-28T14:10:06.791Z,100848.66
2023-11-28T14:12:34.384Z,100859.28
2023-11-28T14:15:01.352Z,100857.44
2023-11-28T14:17:28.061Z,100861.94
2023-11-28T14:19:56.352Z,100860.94
2023-11-28T14:22:25.075Z,100856.63
2023-11-28T14:24:51.833Z,100858.28
2023-11-28T14:27:18.332Z,100860.94
2023-11-28T14:29:45.700Z,100856.31
2023-11-28T14:32:39.029Z,100841.34
2023-11-28T14:35:07.021Z,100849.19
2023-11-28T14:37:36.427Z,100848.19
2023-11-28T14:40:09.201Z,100847.19
2023-11-28T14:42:39.465Z,100845.38
2023-11-28T14:45:08.352Z,100847.88
2023-11-28T14:47:35.809Z,100848.03
2023-11-28T14:50:06.257Z,100864.66
2023-11-28T14:52:32.793Z,100860.19
2023-11-28T14:54:59.236Z,100863.66
2023-11-28T14:57:25.876Z,100862.84
2023-11-28T14:59:52.434Z,100853.88
2023-11-28T15:02:19.634Z,100857.38
2023-11-28T15:04:46.289Z,100860.03
2023-11-28T15:07:12.803Z,100857.38
2023-11-28T15:09:39.563Z,100863.66
2023-11-28T15:12:06.372Z,100864.50
2023-11-28T15:14:32.994Z,100861.00
2023-11-28T15:17:00.847Z,100866.34
2023-11-28T15:19:28.641Z,100863.66
2023-11-28T15:21:55.203Z,100861.00
2023-11-28T15:24:21.753Z,100862.00
2023-11-28T15:26:50.070Z,100859.34
2023-11-28T15:29:16.997Z,100848.72
2023-11-28T15:31:43.522Z,100846.06
2023-11-28T15:34:12.418Z,100846.91
2023-11-28T15:36:38.981Z,100846.91
2023-11-28T15:39:14.216Z,100846.91
2023-11-28T15:41:40.801Z,100840.75
2023-11-28T15:44:07.336Z,100839.75
2023-11-28T15:46:33.815Z,100829.28
2023-11-28T15:49:00.290Z,100828.28
2023-11-28T15:51:34.985Z,100824.81
2023-11-28T15:54:07.888Z,100821.16
2023-11-28T15:56:34.537Z,100823.97
2023-11-28T15:59:01.292Z,100820.47
2023-11-28T16:01:27.934Z,100819.63
2023-11-28T16:03:54.532Z,100818.97
2023-11-28T16:06:21.814Z,100815.47
2023-11-28T16:08:48.412Z,100818.28
2023-11-28T16:11:15.161Z,100815.63
2023-11-28T16:13:42.260Z,100813.94
2023-11-28T16:16:18.587Z,100817.59
2023-11-28T16:18:45.102Z,100826.56
2023-11-28T16:21:11.901Z,100817.75
2023-11-28T16:23:38.489Z,100820.56
2023-11-28T16:26:05.348Z,100816.22
2023-11-28T16:28:33.227Z,100820.72
2023-11-28T16:31:00.393Z,100825.19
2023-11-28T16:33:26.941Z,100824.34
2023-11-28T16:35:55.384Z,100828.03
2023-11-28T16:38:23.272Z,100823.53
2023-11-28T16:40:49.964Z,100826.31
2023-11-28T16:43:16.625Z,100816.69
2023-11-28T16:45:43.936Z,100815.84
2023-11-28T16:48:10.699Z,100814.03
2023-11-28T16:50:37.633Z,100807.88
2023-11-28T16:53:04.143Z,100807.06
2023-11-28T16:55:33.072Z,100808.88
2023-11-28T16:57:59.580Z,100809.84
2023-11-28T17:00:28.641Z,100816.84
2023-11-28T17:02:55.369Z,100809.84
2023-11-28T17:05:22.016Z,100800.22
2023-11-28T17:07:49.131Z,100794.06
2023-11-28T17:10:17.099Z,100780.78
2023-11-28T17:12:46.628Z,100788.75
2023-11-28T17:15:13.500Z,100780.94
2023-11-28T17:17:40.108Z,100782.59
2023-11-28T17:20:08.084Z,100786.25
2023-11-28T17:22:34.747Z,100788.91
2023-11-28T17:25:01.228Z,100791.72
2023-11-28T17:27:27.677Z,100783.75
2023-11-28T17:29:54.125Z,100783.75
2023-11-28T17:32:20.667Z,100785.56
2023-11-28T17:34:50.203Z,100782.91
2023-11-28T17:37:16.714Z,100782.09
2023-11-28T17:39:43.706Z,100767.97
2023-11-28T17:42:10.744Z,100756.50
2023-11-28T17:44:37.536Z,100762.81
2023-11-28T17:47:04.492Z,100761.81
2023-11-28T17:49:31.092Z,100761.81
2023-11-28T17:51:57.656Z,100753.00
2023-11-28T17:54:25.117Z,100751.19
2023-11-28T17:56:51.656Z,100744.22
2023-11-28T17:59:19.498Z,100742.53
2023-11-28T18:01:46.124Z,100740.72
2023-11-28T18:04:13.374Z,100739.06
2023-11-28T18:06:40.629Z,100731.09
2023-11-28T18:09:08.706Z,100726.59
2023-11-28T18:11:35.295Z,100719.63
2023-11-28T18:14:02.483Z,100718.78
2023-11-28T18:16:28.912Z,100717.97
2023-11-28T18:18:57.521Z,100720.63
2023-11-28T18:21:27.839Z,100718.78
2023-11-28T18:23:55.190Z,100706.34
2023-11-28T18:26:21.697Z,100692.22
2023-11-28T18:28:48.289Z,100688.75
2023-11-28T18:31:15.047Z,100695.88
2023-11-28T18:33:41.636Z,100696.72
2023-11-28T18:36:09.414Z,100695.06
2023-11-28T18:38:40.718Z,100690.56
2023-11-28T18:41:14.635Z,100703.03
2023-11-28T18:43:42.125Z,100701.19
2023-11-28T18:46:13.985Z,100701.19
2023-11-28T18:48:43.912Z,100696.72
2023-11-28T18:51:20.704Z,100687.09
2023-11-28T18:53:47.361Z,100679.13
2023-11-28T18:56:24.914Z,100665.84
2023-11-28T18:58:51.575Z,100646.59
2023-11-28T19:01:20.066Z,100659.72
2023-11-28T19:03:47.888Z,100656.22
2023-11-28T19:06:15.143Z,100654.56
2023-11-28T19:08:42.544Z,100651.06
2023-11-28T19:11:11.728Z,100641.28
2023-11-28T19:13:38.734Z,100646.59
2023-11-28T19:16:06.715Z,100643.09
2023-11-28T19:18:33.753Z,100637.78
2023-11-28T19:21:01.088Z,100643.09
2023-11-28T19:23:27.959Z,100627.16
2023-11-28T19:25:54.470Z,100634.28
2023-11-28T19:28:21.021Z,100626.34
2023-11-28T19:30:47.537Z,100638.78
2023-11-28T19:33:15.068Z,100626.34
2023-11-28T19:35:41.587Z,100629.81
2023-11-28T19:38:08.264Z,100628.16
2023-11-28T19:40:35.081Z,100619.34
2023-11-28T19:43:02.565Z,100625.50
2023-11-28T19:45:29.085Z,100614.03
2023-11-28T19:47:57.664Z,100608.72
2023-11-28T19:50:25.522Z,100607.75
2023-11-28T19:52:53.116Z,100609.72
2023-11-28T19:55:19.613Z,100622.00
2023-11-28T19:57:46.188Z,100623.84
2023-11-28T20:00:13.415Z,100606.06
2023-11-28T20:02:40.021Z,100593.63
2023-11-28T20:05:07.558Z,100598.94
2023-11-28T20:07:34.270Z,100599.09
2023-11-28T20:10:00.959Z,100591.13
2023-11-28T20:12:30.329Z,100600.91
2023-11-28T20:14:56.792Z,100594.63
2023-11-28T20:17:24.776Z,100593.78
2023-11-28T20:19:51.276Z,100591.13
2023-11-28T20:22:18.444Z,100593.78
2023-11-28T20:24:44.928Z,100590.28
2023-11-28T20:27:11.612Z,100586.66
2023-11-28T20:29:39.309Z,100589.47
2023-11-28T20:32:11.359Z,100598.25
2023-11-28T20:34:38.333Z,100594.78
2023-11-28T20:37:17.944Z,100599.09
2023-11-28T20:39:46.225Z,100603.56
2023-11-28T20:42:12.879Z,100602.75
2023-11-28T20:44:39.443Z,100590.28
2023-11-28T20:47:06.109Z,100587.63
2023-11-28T20:49:32.620Z,100589.47
2023-11-28T20:51:59.731Z,100592.94
2023-11-28T20:54:26.928Z,100588.63
2023-11-28T20:56:55.669Z,100584.16
2023-11-28T20:59:22.322Z,100588.63
2023-11-28T21:01:50.223Z,100590.47
2023-11-28T21:04:16.934Z,100591.28
2023-11-28T21:06:43.712Z,100588.63
2023-11-28T21:09:11.189Z,100571.88
2023-11-28T21:11:37.796Z,100583.31
2023-11-28T21:14:04.364Z,100587.78
2023-11-28T21:16:30.949Z,100587.78
2023-11-28T21:18:57.506Z,100581.50
2023-11-28T21:21:25.414Z,100572.84
2023-11-28T21:23:56.567Z,100576.34
2023-11-28T21:26:24.448Z,100573.69
2023-11-28T21:28:54.323Z,100573.69
2023-11-28T21:31:21.222Z,100569.38
2023-11-28T21:33:47.881Z,100569.38
2023-11-28T21:36:15.941Z,100558.75
2023-11-28T21:38:45.351Z,100560.56
2023-11-28T21:41:19.934Z,100551.78
2023-11-28T21:43:46.527Z,100558.91
2023-11-28T21:46:13.327Z,100559.72
2023-11-28T21:48:42.753Z,100558.91
2023-11-28T21:51:10.477Z,100556.25
2023-11-28T21:53:37.074Z,100549.94
2023-11-28T21:56:04.453Z,100540.31
2023-11-28T21:58:31.365Z,100545.63
2023-11-28T22:00:57.823Z,100534.16
2023-11-28T22:03:27.100Z,100536.81
2023-11-28T22:05:53.826Z,100541.16
2023-11-28T22:08:23.262Z,100533.34
2023-11-28T22:10:50.069Z,100536.00
2023-11-28T22:13:16.950Z,100536.97
2023-11-28T22:15:43.372Z,100537.81
2023-11-28T22:18:10.203Z,100536.00
2023-11-28T22:20:36.847Z,100536.00
2023-11-28T22:23:03.550Z,100534.31
2023-11-28T22:25:29.983Z,100535.16
2023-11-28T22:27:57.431Z,100538.66
2023-11-28T22:30:23.872Z,100528.03
2023-11-28T22:32:50.699Z,100525.38
2023-11-28T22:35:17.301Z,100518.41
2023-11-28T22:37:48.161Z,100529.84
2023-11-28T22:40:16.260Z,100530.00
2023-11-28T22:42:43.820Z,100518.41
2023-11-28T22:45:12.646Z,100511.25
2023-11-28T22:47:39.999Z,100515.75
2023-11-28T22:50:10.185Z,100515.75
2023-11-28T22:52:36.889Z,100516.72
2023-11-28T22:55:06.208Z,100500.78
2023-11-28T22:57:33.300Z,100483.03
2023-11-28T23:00:01.163Z,100483.03
2023-11-28T23:02:27.759Z,100483.19
2023-11-28T23:04:54.833Z,100484.03
2023-11-28T23:07:21.286Z,100477.88
2023-11-28T23:09:47.855Z,100477.88
2023-11-28T23:12:17.701Z,100473.41
2023-11-28T23:14:44.689Z,100478.72
2023-11-28T23:17:11.689Z,100485.03
2023-11-28T23:19:38.172Z,100473.25
2023-11-28T23:22:04.780Z,100458.47
2023-11-28T23:24:31.305Z,100458.47
2023-11-28T23:26:57.759Z,100451.34
2023-11-28T23:29:24.263Z,100438.06
2023-11-28T23:31:50.757Z,100436.41
2023-11-28T23:34:17.295Z,100431.09
2023-11-28T23:36:44.166Z,100409.84
2023-11-28T23:39:10.634Z,100401.06
2023-11-28T23:41:37.387Z,100394.94
2023-11-28T23:44:04.038Z,100401.06
2023-11-28T23:46:30.516Z,100386.16
2023-11-28T23:49:04.513Z,100384.31
2023-11-28T23:51:32.649Z,100388.81
2023-11-28T23:53:59.478Z,100379.00
2023-11-28T23:56:26.014Z,100378.19
2023-11-28T23:58:52.567Z,100366.72
